sensor_id;sensor_type;location;lat;lon;timestamp;pressure;altitude;pressure_sealevel;temperature;humidity
40940;BME280;26666;50.156;7.700;2022-09-12T00:03:08;100661.41;;;13.08;100.00
40940;BME280;26666;50.156;7.700;2022-09-12T00:08:11;100656.94;;;12.99;100.00
40940;BME280;26666;50.156;7.700;2022-09-12T00:13:13;100657.50;;;13.02;100.00
40940;BME280;26666;50.156;7.700;2022-09-12T00:18:15;100657.94;;;12.98;100.00
40940;BME280;26666;50.156;7.700;2022-09-12T00:23:17;100654.28;;;12.79;100.00
40940;BME280;26666;50.156;7.700;2022-09-12T00:28:19;100650.50;;;12.92;100.00
40940;BME280;26666;50.156;7.700;2022-09-12T00:33:20;100645.06;;;12.64;100.00
40940;BME280;26666;50.156;7.700;2022-09-12T00:38:22;100635.00;;;12.68;100.00
40940;BME280;26666;50.156;7.700;2022-09-12T00:43:37;100624.41;;;12.87;100.00
40940;BME280;26666;50.156;7.700;2022-09-12T00:48:53;100631.25;;;12.90;100.00
40940;BME280;26666;50.156;7.700;2022-09-12T00:53:56;100626.09;;;12.88;100.00
40940;BME280;26666;50.156;7.700;2022-09-12T00:59:04;100625.66;;;12.63;100.00
40940;BME280;26666;50.156;7.700;2022-09-12T01:04:08;100623.47;;;12.78;100.00
40940;BME280;26666;50.156;7.700;2022-09-12T01:09:14;100614.63;;;12.88;100.00
40940;BME280;26666;50.156;7.700;2022-09-12T01:14:18;100616.59;;;12.76;100.00
40940;BME280;26666;50.156;7.700;2022-09-12T01:19:54;100607.56;;;12.78;100.00
40940;BME280;26666;50.156;7.700;2022-09-12T01:41:23;100600.28;;;12.80;100.00
40940;BME280;26666;50.156;7.700;2022-09-12T01:46:31;100607.69;;;12.87;100.00
40940;BME280;26666;50.156;7.700;2022-09-12T01:51:47;100601.53;;;12.86;100.00
40940;BME280;26666;50.156;7.700;2022-09-12T01:56:57;100602.78;;;12.82;100.00
40940;BME280;26666;50.156;7.700;2022-09-12T02:02:14;100596.25;;;12.96;100.00
40940;BME280;26666;50.156;7.700;2022-09-12T02:07:21;100585.06;;;12.82;100.00
40940;BME280;26666;50.156;7.700;2022-09-12T02:12:25;100587.28;;;12.77;100.00
40940;BME280;26666;50.156;7.700;2022-09-12T02:17:36;100584.78;;;12.76;100.00
40940;BME280;26666;50.156;7.700;2022-09-12T02:22:38;100581.16;;;12.87;100.00
40940;BME280;26666;50.156;7.700;2022-09-12T02:27:48;100573.47;;;12.74;100.00
40940;BME280;26666;50.156;7.700;2022-09-12T02:32:59;100583.25;;;12.73;100.00
40940;BME280;26666;50.156;7.700;2022-09-12T02:38:17;100580.16;;;12.78;100.00
40940;BME280;26666;50.156;7.700;2022-09-12T02:43:23;100581.84;;;12.79;100.00
40940;BME280;26666;50.156;7.700;2022-09-12T02:48:27;100587.16;;;12.89;100.00
40940;BME280;26666;50.156;7.700;2022-09-12T02:53:30;100585.63;;;12.86;100.00
40940;BME280;26666;50.156;7.700;2022-09-12T02:58:32;100579.78;;;12.82;100.00
40940;BME280;26666;50.156;7.700;2022-09-12T03:03:51;100579.47;;;12.86;100.00
40940;BME280;26666;50.156;7.700;2022-09-12T03:20:00;100575.44;;;12.62;100.00
40940;BME280;26666;50.156;7.700;2022-09-12T03:25:39;100581.72;;;12.51;100.00
40940;BME280;26666;50.156;7.700;2022-09-12T03:30:44;100575.72;;;12.59;100.00
40940;BME280;26666;50.156;7.700;2022-09-12T03:35:47;100575.88;;;12.67;100.00
40940;BME280;26666;50.156;7.700;2022-09-12T03:40:49;100576.81;;;12.66;100.00
40940;BME280;26666;50.156;7.700;2022-09-12T03:45:55;100583.25;;;12.63;100.00
40940;BME280;26666;50.156;7.700;2022-09-12T03:51:01;100570.56;;;12.48;100.00
40940;BME280;26666;50.156;7.700;2022-09-12T03:56:07;100575.28;;;12.54;100.00
40940;BME280;26666;50.156;7.700;2022-09-12T04:01:12;100577.38;;;12.60;100.00
40940;BME280;26666;50.156;7.700;2022-09-12T04:06:16;100579.91;;;12.52;100.00
40940;BME280;26666;50.156;7.700;2022-09-12T04:11:19;100577.50;;;12.49;100.00
40940;BME280;26666;50.156;7.700;2022-09-12T04:16:20;100576.69;;;12.58;100.00
40940;BME280;26666;50.156;7.700;2022-09-12T04:21:22;100574.47;;;12.43;100.00
40940;BME280;26666;50.156;7.700;2022-09-12T04:26:24;100573.34;;;12.46;100.00
40940;BME280;26666;50.156;7.700;2022-09-12T04:31:25;100582.47;;;12.13;100.00
40940;BME280;26666;50.156;7.700;2022-09-12T04:36:28;100572.19;;;12.29;100.00
40940;BME280;26666;50.156;7.700;2022-09-12T04:41:32;100578.47;;;12.28;100.00
40940;BME280;26666;50.156;7.700;2022-09-12T04:46:36;100564.69;;;12.34;100.00
40940;BME280;26666;50.156;7.700;2022-09-12T04:51:40;100557.00;;;12.31;100.00
40940;BME280;26666;50.156;7.700;2022-09-12T04:56:44;100569.56;;;12.39;100.00
40940;BME280;26666;50.156;7.700;2022-09-12T05:01:46;100570.06;;;12.13;100.00
40940;BME280;26666;50.156;7.700;2022-09-12T05:06:48;100567.59;;;12.31;100.00
40940;BME280;26666;50.156;7.700;2022-09-12T05:11:50;100571.59;;;12.16;100.00
40940;BME280;26666;50.156;7.700;2022-09-12T05:17:07;100563.66;;;12.26;100.00
40940;BME280;26666;50.156;7.700;2022-09-12T05:22:08;100562.84;;;12.25;100.00
40940;BME280;26666;50.156;7.700;2022-09-12T05:27:10;100560.09;;;12.46;100.00
40940;BME280;26666;50.156;7.700;2022-09-12T05:32:11;100556.03;;;12.32;100.00
40940;BME280;26666;50.156;7.700;2022-09-12T05:37:13;100550.16;;;12.29;100.00
40940;BME280;26666;50.156;7.700;2022-09-12T05:42:14;100554.50;;;12.39;100.00
40940;BME280;26666;50.156;7.700;2022-09-12T05:47:16;100559.94;;;12.28;100.00
40940;BME280;26666;50.156;7.700;2022-09-12T05:52:17;100557.44;;;12.36;100.00
40940;BME280;26666;50.156;7.700;2022-09-12T05:57:18;100563.31;;;12.50;100.00
40940;BME280;26666;50.156;7.700;2022-09-12T06:02:20;100565.25;;;12.57;100.00
40940;BME280;26666;50.156;7.700;2022-09-12T06:07:22;100572.22;;;12.49;100.00
40940;BME280;26666;50.156;7.700;2022-09-12T06:12:24;100571.38;;;12.68;100.00
40940;BME280;26666;50.156;7.700;2022-09-12T06:17:25;100574.84;;;12.97;100.00
40940;BME280;26666;50.156;7.700;2022-09-12T06:22:27;100574.75;;;12.79;100.00
40940;BME280;26666;50.156;7.700;2022-09-12T06:27:28;100568.88;;;12.86;100.00
40940;BME280;26666;50.156;7.700;2022-09-12T06:32:30;100567.59;;;12.99;100.00
40940;BME280;26666;50.156;7.700;2022-09-12T06:37:31;100563.53;;;13.15;100.00
40940;BME280;26666;50.156;7.700;2022-09-12T06:42:33;100570.38;;;13.37;100.00
40940;BME280;26666;50.156;7.700;2022-09-12T06:47:34;100568.81;;;13.25;100.00
40940;BME280;26666;50.156;7.700;2022-09-12T06:52:36;100575.34;;;13.50;100.00
40940;BME280;26666;50.156;7.700;2022-09-12T06:57:37;100576.47;;;13.47;100.00
40940;BME280;26666;50.156;7.700;2022-09-12T07:02:39;100576.56;;;13.55;100.00
40940;BME280;26666;50.156;7.700;2022-09-12T07:07:40;100571.50;;;13.72;100.00
40940;BME280;26666;50.156;7.700;2022-09-12T07:12:41;100568.53;;;13.75;100.00
40940;BME280;26666;50.156;7.700;2022-09-12T07:17:43;100564.13;;;13.93;100.00
40940;BME280;26666;50.156;7.700;2022-09-12T07:22:44;100557.22;;;14.00;100.00
40940;BME280;26666;50.156;7.700;2022-09-12T07:27:46;100557.63;;;14.06;100.00
40940;BME280;26666;50.156;7.700;2022-09-12T07:32:52;100549.81;;;14.22;100.00
40940;BME280;26666;50.156;7.700;2022-09-12T07:37:54;100551.22;;;13.98;100.00
40940;BME280;26666;50.156;7.700;2022-09-12T07:42:56;100555.81;;;14.24;100.00
40940;BME280;26666;50.156;7.700;2022-09-12T07:47:57;100554.78;;;14.53;100.00
40940;BME280;26666;50.156;7.700;2022-09-12T07:52:59;100557.34;;;14.81;100.00
40940;BME280;26666;50.156;7.700;2022-09-12T07:58:00;100561.19;;;15.56;100.00
40940;BME280;26666;50.156;7.700;2022-09-12T08:03:02;100562.09;;;16.83;100.00
40940;BME280;26666;50.156;7.700;2022-09-12T08:08:03;100568.56;;;18.17;100.00
40940;BME280;26666;50.156;7.700;2022-09-12T08:13:08;100560.56;;;17.13;100.00
40940;BME280;26666;50.156;7.700;2022-09-12T08:18:11;100560.72;;;17.76;100.00
40940;BME280;26666;50.156;7.700;2022-09-12T08:23:12;100561.41;;;18.64;100.00
40940;BME280;26666;50.156;7.700;2022-09-12T08:28:14;100560.59;;;18.40;98.92
40940;BME280;26666;50.156;7.700;2022-09-12T08:33:15;100562.06;;;18.66;97.70
40940;BME280;26666;50.156;7.700;2022-09-12T08:38:18;100558.09;;;18.85;98.00
40940;BME280;26666;50.156;7.700;2022-09-12T08:43:44;100560.84;;;18.53;97.77
40940;BME280;26666;50.156;7.700;2022-09-12T08:48:49;100560.72;;;18.70;99.16
40940;BME280;26666;50.156;7.700;2022-09-12T08:53:52;100542.66;;;19.10;97.30
40940;BME280;26666;50.156;7.700;2022-09-12T08:58:56;100549.44;;;18.83;99.43
40940;BME280;26666;50.156;7.700;2022-09-12T09:09:38;100535.09;;;19.43;96.16
40940;BME280;26666;50.156;7.700;2022-09-12T09:15:21;100526.69;;;19.46;94.33
40940;BME280;26666;50.156;7.700;2022-09-12T09:20:41;100520.97;;;19.64;93.33
40940;BME280;26666;50.156;7.700;2022-09-12T09:26:05;100515.53;;;20.09;91.22
40940;BME280;26666;50.156;7.700;2022-09-12T09:31:18;100507.00;;;20.42;91.67
40940;BME280;26666;50.156;7.700;2022-09-12T09:36:37;100501.47;;;21.28;87.75
40940;BME280;26666;50.156;7.700;2022-09-12T09:41:55;100497.34;;;21.60;80.49
40940;BME280;26666;50.156;7.700;2022-09-12T09:47:01;100492.97;;;21.59;82.21
40940;BME280;26666;50.156;7.700;2022-09-12T09:52:04;100483.97;;;21.80;80.92
40940;BME280;26666;50.156;7.700;2022-09-12T10:02:36;100476.16;;;21.99;75.25
40940;BME280;26666;50.156;7.700;2022-09-12T10:07:48;100462.94;;;22.17;72.79
40940;BME280;26666;50.156;7.700;2022-09-12T10:12:54;100460.44;;;22.09;71.09
40940;BME280;26666;50.156;7.700;2022-09-12T10:18:06;100448.50;;;22.38;69.29
40940;BME280;26666;50.156;7.700;2022-09-12T10:28:34;100452.22;;;22.51;66.72
40940;BME280;26666;50.156;7.700;2022-09-12T10:33:43;100443.50;;;22.69;66.48
40940;BME280;26666;50.156;7.700;2022-09-12T10:38:50;100436.88;;;22.64;64.07
40940;BME280;26666;50.156;7.700;2022-09-12T10:44:05;100440.63;;;22.57;64.52
40940;BME280;26666;50.156;7.700;2022-09-12T10:49:20;100435.66;;;22.60;63.74
40940;BME280;26666;50.156;7.700;2022-09-12T10:54:25;100433.16;;;22.79;64.56
40940;BME280;26666;50.156;7.700;2022-09-12T10:59:32;100428.00;;;22.51;64.08
40940;BME280;26666;50.156;7.700;2022-09-12T11:05:10;100425.06;;;22.72;64.33
40940;BME280;26666;50.156;7.700;2022-09-12T11:42:34;100392.97;;;22.04;63.50
40940;BME280;26666;50.156;7.700;2022-09-12T11:47:38;100386.78;;;22.17;64.44
40940;BME280;26666;50.156;7.700;2022-09-12T11:52:42;100381.81;;;22.20;62.83
40940;BME280;26666;50.156;7.700;2022-09-12T11:57:49;100385.94;;;22.10;63.82
40940;BME280;26666;50.156;7.700;2022-09-12T12:03:33;100377.03;;;22.22;61.62
40940;BME280;26666;50.156;7.700;2022-09-12T12:08:42;100375.81;;;22.18;61.84
40940;BME280;26666;50.156;7.700;2022-09-12T12:13:56;100373.28;;;21.90;61.95
40940;BME280;26666;50.156;7.700;2022-09-12T12:19:24;100362.91;;;21.60;66.38
40940;BME280;26666;50.156;7.700;2022-09-12T12:24:27;100360.03;;;21.82;63.42
40940;BME280;26666;50.156;7.700;2022-09-12T12:29:41;100346.81;;;21.94;63.78
40940;BME280;26666;50.156;7.700;2022-09-12T12:34:46;100345.97;;;21.86;64.08
40940;BME280;26666;50.156;7.700;2022-09-12T12:44:49;100340.41;;;22.01;63.34
40940;BME280;26666;50.156;7.700;2022-09-12T12:49:53;100321.38;;;21.90;63.78
40940;BME280;26666;50.156;7.700;2022-09-12T12:54:59;100321.75;;;21.86;64.33
40940;BME280;26666;50.156;7.700;2022-09-12T13:05:26;100312.66;;;21.68;65.80
40940;BME280;26666;50.156;7.700;2022-09-12T13:10:29;100303.53;;;21.75;64.79
40940;BME280;26666;50.156;7.700;2022-09-12T13:20:45;100287.00;;;22.12;62.31
40940;BME280;26666;50.156;7.700;2022-09-12T13:25:51;100272.72;;;22.24;60.40
40940;BME280;26666;50.156;7.700;2022-09-12T13:30:58;100279.34;;;22.02;60.11
40940;BME280;26666;50.156;7.700;2022-09-12T13:36:21;100266.72;;;21.96;60.54
40940;BME280;26666;50.156;7.700;2022-09-12T13:46:45;100265.47;;;21.45;64.33
40940;BME280;26666;50.156;7.700;2022-09-12T13:52:16;100257.63;;;21.90;59.42
40940;BME280;26666;50.156;7.700;2022-09-12T13:57:34;100246.66;;;21.78;60.54
40940;BME280;26666;50.156;7.700;2022-09-12T14:02:38;100242.88;;;22.19;59.38
40940;BME280;26666;50.156;7.700;2022-09-12T14:08:01;100244.38;;;22.02;59.86
40940;BME280;26666;50.156;7.700;2022-09-12T14:13:21;100236.75;;;21.59;63.23
40940;BME280;26666;50.156;7.700;2022-09-12T14:18:27;100238.81;;;21.57;61.65
40940;BME280;26666;50.156;7.700;2022-09-12T14:23:30;100232.13;;;21.19;65.45
40940;BME280;26666;50.156;7.700;2022-09-12T14:28:32;100235.69;;;21.86;59.97
40940;BME280;26666;50.156;7.700;2022-09-12T14:34:06;100227.84;;;21.92;59.69
40940;BME280;26666;50.156;7.700;2022-09-12T14:39:37;100219.13;;;21.83;60.57
40940;BME280;26666;50.156;7.700;2022-09-12T14:44:48;100214.63;;;21.57;61.89
40940;BME280;26666;50.156;7.700;2022-09-12T14:49:52;100210.25;;;21.42;63.31
40940;BME280;26666;50.156;7.700;2022-09-12T14:55:41;100206.25;;;20.98;68.27
40940;BME280;26666;50.156;7.700;2022-09-12T15:00:23;100203.78;;;21.10;65.21
40940;BME280;26666;50.156;7.700;2022-09-12T15:05:26;100204.19;;;21.00;68.57
40940;BME280;26666;50.156;7.700;2022-09-12T15:15:29;100195.53;;;21.18;64.96
40940;BME280;26666;50.156;7.700;2022-09-12T15:20:31;100198.88;;;21.94;61.20
40940;BME280;26666;50.156;7.700;2022-09-12T15:25:33;100194.06;;;20.96;69.01
40940;BME280;26666;50.156;7.700;2022-09-12T15:30:35;100190.13;;;20.98;65.68
40940;BME280;26666;50.156;7.700;2022-09-12T15:35:36;100187.44;;;20.98;67.04
40940;BME280;26666;50.156;7.700;2022-09-12T15:40:38;100185.81;;;21.11;64.12
40940;BME280;26666;50.156;7.700;2022-09-12T15:45:41;100172.56;;;21.09;64.78
40940;BME280;26666;50.156;7.700;2022-09-12T15:50:43;100170.28;;;20.93;67.75
40940;BME280;26666;50.156;7.700;2022-09-12T15:55:45;100170.13;;;21.14;64.98
40940;BME280;26666;50.156;7.700;2022-09-12T16:00:47;100158.31;;;20.95;65.70
40940;BME280;26666;50.156;7.700;2022-09-12T16:05:49;100159.78;;;21.24;64.13
40940;BME280;26666;50.156;7.700;2022-09-12T16:10:55;100154.72;;;20.61;71.16
40940;BME280;26666;50.156;7.700;2022-09-12T16:15:58;100157.06;;;20.29;74.39
40940;BME280;26666;50.156;7.700;2022-09-12T16:21:00;100158.88;;;20.22;73.72
40940;BME280;26666;50.156;7.700;2022-09-12T16:26:04;100161.28;;;20.11;76.35
40940;BME280;26666;50.156;7.700;2022-09-12T16:31:07;100149.94;;;20.08;76.15
40940;BME280;26666;50.156;7.700;2022-09-12T16:36:12;100156.91;;;20.03;77.12
40940;BME280;26666;50.156;7.700;2022-09-12T16:41:15;100160.59;;;19.95;78.41
40940;BME280;26666;50.156;7.700;2022-09-12T16:46:20;100152.50;;;19.88;79.58
40940;BME280;26666;50.156;7.700;2022-09-12T16:51:25;100151.44;;;19.83;79.47
40940;BME280;26666;50.156;7.700;2022-09-12T16:56:27;100140.28;;;19.79;80.40
40940;BME280;26666;50.156;7.700;2022-09-12T17:01:28;100142.91;;;19.73;80.68
40940;BME280;26666;50.156;7.700;2022-09-12T17:06:31;100136.44;;;19.67;80.18
40940;BME280;26666;50.156;7.700;2022-09-12T17:11:35;100135.41;;;19.61;81.66
40940;BME280;26666;50.156;7.700;2022-09-12T17:16:39;100138.66;;;19.57;80.80
40940;BME280;26666;50.156;7.700;2022-09-12T17:21:42;100134.75;;;19.59;80.16
40940;BME280;26666;50.156;7.700;2022-09-12T17:26:44;100136.78;;;19.57;83.18
40940;BME280;26666;50.156;7.700;2022-09-12T17:31:46;100130.28;;;19.38;85.54
40940;BME280;26666;50.156;7.700;2022-09-12T17:36:48;100133.84;;;19.24;90.97
40940;BME280;26666;50.156;7.700;2022-09-12T17:41:50;100139.72;;;19.13;89.34
40940;BME280;26666;50.156;7.700;2022-09-12T17:46:51;100131.53;;;18.92;92.60
40940;BME280;26666;50.156;7.700;2022-09-12T17:51:52;100134.66;;;18.60;95.03
40940;BME280;26666;50.156;7.700;2022-09-12T17:56:54;100128.59;;;18.51;96.90
40940;BME280;26666;50.156;7.700;2022-09-12T18:01:55;100128.06;;;18.41;95.08
40940;BME280;26666;50.156;7.700;2022-09-12T18:06:57;100146.81;;;18.26;96.17
40940;BME280;26666;50.156;7.700;2022-09-12T18:11:58;100146.28;;;18.16;95.64
40940;BME280;26666;50.156;7.700;2022-09-12T18:17:00;100139.66;;;18.11;94.43
40940;BME280;26666;50.156;7.700;2022-09-12T18:22:03;100157.97;;;18.00;95.74
40940;BME280;26666;50.156;7.700;2022-09-12T18:27:05;100154.56;;;17.91;96.54
40940;BME280;26666;50.156;7.700;2022-09-12T18:32:06;100156.03;;;17.79;98.50
40940;BME280;26666;50.156;7.700;2022-09-12T18:37:07;100154.00;;;17.81;94.31
40940;BME280;26666;50.156;7.700;2022-09-12T18:42:09;100150.28;;;17.82;96.48
40940;BME280;26666;50.156;7.700;2022-09-12T18:47:10;100156.34;;;17.61;96.10
40940;BME280;26666;50.156;7.700;2022-09-12T18:52:12;100165.47;;;17.51;99.00
40940;BME280;26666;50.156;7.700;2022-09-12T18:57:13;100169.66;;;17.31;100.00
40940;BME280;26666;50.156;7.700;2022-09-12T19:02:15;100166.88;;;17.24;100.00
40940;BME280;26666;50.156;7.700;2022-09-12T19:07:16;100164.06;;;17.18;100.00
40940;BME280;26666;50.156;7.700;2022-09-12T19:12:18;100155.78;;;17.12;99.36
40940;BME280;26666;50.156;7.700;2022-09-12T19:17:19;100165.25;;;16.92;100.00
40940;BME280;26666;50.156;7.700;2022-09-12T19:22:21;100160.22;;;16.97;100.00
40940;BME280;26666;50.156;7.700;2022-09-12T19:27:22;100139.63;;;16.83;100.00
40940;BME280;26666;50.156;7.700;2022-09-12T19:32:24;100139.13;;;16.79;100.00
40940;BME280;26666;50.156;7.700;2022-09-12T19:37:28;100133.72;;;16.64;100.00
40940;BME280;26666;50.156;7.700;2022-09-12T19:42:29;100140.25;;;16.62;100.00
40940;BME280;26666;50.156;7.700;2022-09-12T19:47:31;100148.00;;;16.48;100.00
40940;BME280;26666;50.156;7.700;2022-09-12T19:52:32;100132.69;;;16.42;100.00
40940;BME280;26666;50.156;7.700;2022-09-12T19:57:34;100123.44;;;16.22;100.00
40940;BME280;26666;50.156;7.700;2022-09-12T20:02:35;100118.66;;;16.17;100.00
40940;BME280;26666;50.156;7.700;2022-09-12T20:07:37;100123.84;;;16.42;100.00
40940;BME280;26666;50.156;7.700;2022-09-12T20:12:39;100118.28;;;16.20;100.00
40940;BME280;26666;50.156;7.700;2022-09-12T20:17:40;100111.66;;;16.16;100.00
40940;BME280;26666;50.156;7.700;2022-09-12T20:22:41;100108.16;;;16.15;100.00
40940;BME280;26666;50.156;7.700;2022-09-12T20:27:43;100104.69;;;16.07;100.00
40940;BME280;26666;50.156;7.700;2022-09-12T20:32:44;100135.50;;;16.01;100.00
40940;BME280;26666;50.156;7.700;2022-09-12T20:37:46;100141.44;;;15.80;100.00
40940;BME280;26666;50.156;7.700;2022-09-12T20:42:47;100118.13;;;15.74;100.00
40940;BME280;26666;50.156;7.700;2022-09-12T20:47:49;100113.78;;;15.65;100.00
40940;BME280;26666;50.156;7.700;2022-09-12T20:52:50;100120.13;;;15.55;100.00
40940;BME280;26666;50.156;7.700;2022-09-12T20:57:52;100111.13;;;15.56;100.00
40940;BME280;26666;50.156;7.700;2022-09-12T21:02:53;100104.81;;;15.57;100.00
40940;BME280;26666;50.156;7.700;2022-09-12T21:07:54;100105.47;;;15.60;100.00
40940;BME280;26666;50.156;7.700;2022-09-12T21:12:56;100105.13;;;15.54;100.00
40940;BME280;26666;50.156;7.700;2022-09-12T21:17:57;100101.03;;;15.27;100.00
40940;BME280;26666;50.156;7.700;2022-09-12T21:22:59;100094.03;;;15.51;100.00
40940;BME280;26666;50.156;7.700;2022-09-12T21:28:01;100093.56;;;15.23;100.00
40940;BME280;26666;50.156;7.700;2022-09-12T21:33:02;100095.56;;;15.21;100.00
40940;BME280;26666;50.156;7.700;2022-09-12T21:38:04;100098.03;;;15.30;100.00
40940;BME280;26666;50.156;7.700;2022-09-12T21:43:05;100102.22;;;15.08;100.00
40940;BME280;26666;50.156;7.700;2022-09-12T21:48:12;100117.34;;;15.16;100.00
40940;BME280;26666;50.156;7.700;2022-09-12T21:53:14;100127.81;;;15.09;100.00
40940;BME280;26666;50.156;7.700;2022-09-12T21:58:15;100119.00;;;15.25;100.00
40940;BME280;26666;50.156;7.700;2022-09-12T22:03:17;100115.81;;;14.72;100.00
40940;BME280;26666;50.156;7.700;2022-09-12T22:08:18;100099.91;;;14.89;100.00
40940;BME280;26666;50.156;7.700;2022-09-12T22:13:20;100089.41;;;14.95;100.00
40940;BME280;26666;50.156;7.700;2022-09-12T22:18:21;100099.69;;;14.90;100.00
40940;BME280;26666;50.156;7.700;2022-09-12T22:23:23;100093.22;;;14.76;100.00
40940;BME280;26666;50.156;7.700;2022-09-12T22:28:25;100086.31;;;14.49;100.00
40940;BME280;26666;50.156;7.700;2022-09-12T22:33:27;100085.56;;;14.65;100.00
40940;BME280;26666;50.156;7.700;2022-09-12T22:38:28;100077.34;;;14.42;100.00
40940;BME280;26666;50.156;7.700;2022-09-12T22:43:31;100076.84;;;14.38;100.00
40940;BME280;26666;50.156;7.700;2022-09-12T22:48:32;100086.31;;;14.41;100.00
40940;BME280;26666;50.156;7.700;2022-09-12T22:53:34;100085.25;;;14.17;100.00
40940;BME280;26666;50.156;7.700;2022-09-12T22:58:36;100088.59;;;14.19;100.00
40940;BME280;26666;50.156;7.700;2022-09-12T23:03:37;100103.19;;;14.15;100.00
40940;BME280;26666;50.156;7.700;2022-09-12T23:08:39;100096.56;;;14.19;100.00
40940;BME280;26666;50.156;7.700;2022-09-12T23:13:42;100095.72;;;14.11;100.00
40940;BME280;26666;50.156;7.700;2022-09-12T23:18:45;100079.66;;;14.29;100.00
40940;BME280;26666;50.156;7.700;2022-09-12T23:23:47;100068.50;;;14.25;100.00
40940;BME280;26666;50.156;7.700;2022-09-12T23:28:51;100060.97;;;14.12;100.00
40940;BME280;26666;50.156;7.700;2022-09-12T23:33:54;100077.16;;;14.27;100.00
40940;BME280;26666;50.156;7.700;2022-09-12T23:38:56;100063.06;;;13.84;100.00
40940;BME280;26666;50.156;7.700;2022-09-12T23:43:58;100066.69;;;13.83;100.00
40940;BME280;26666;50.156;7.700;2022-09-12T23:48:59;100061.47;;;13.65;100.00
40940;BME280;26666;50.156;7.700;2022-09-12T23:54:01;100062.28;;;13.66;100.00
40940;BME280;26666;50.156;7.700;2022-09-12T23:59:03;100064.34;;;13.72;100.00
